sensor_id;sensor_type;location;lat;lon;timestamp;temperature;humidity
78490;DHT22;67776;52.012;4.736;2023-08-01T00:02:19;15.90;97.72
78490;DHT22;67776;52.012;4.736;2023-08-01T00:04:44;15.93;96.91
78490;DHT22;67776;52.012;4.736;2023-08-01T00:07:09;15.91;96.67
78490;DHT22;67776;52.012;4.736;2023-08-01T00:09:35;15.96;97.15
78490;DHT22;67776;52.012;4.736;2023-08-01T00:12:00;15.94;96.75
78490;DHT22;67776;52.012;4.736;2023-08-01T00:14:25;15.89;96.72
78490;DHT22;67776;52.012;4.736;2023-08-01T00:16:51;15.89;95.90
78490;DHT22;67776;52.012;4.736;2023-08-01T00:19:17;15.87;95.61
78490;DHT22;67776;52.012;4.736;2023-08-01T00:21:42;15.87;94.88
78490;DHT22;67776;52.012;4.736;2023-08-01T00:24:08;15.90;94.94
78490;DHT22;67776;52.012;4.736;2023-08-01T00:26:34;15.85;95.70
78490;DHT22;67776;52.012;4.736;2023-08-01T00:28:59;15.79;94.90
78490;DHT22;67776;52.012;4.736;2023-08-01T00:31:24;15.74;96.62
78490;DHT22;67776;52.012;4.736;2023-08-01T00:33:50;15.73;95.37
78490;DHT22;67776;52.012;4.736;2023-08-01T00:36:15;15.66;95.63
78490;DHT22;67776;52.012;4.736;2023-08-01T00:38:41;15.63;95.47
78490;DHT22;67776;52.012;4.736;2023-08-01T00:41:11;15.59;96.06
78490;DHT22;67776;52.012;4.736;2023-08-01T00:43:36;15.56;95.51
78490;DHT22;67776;52.012;4.736;2023-08-01T00:46:04;15.53;95.98
78490;DHT22;67776;52.012;4.736;2023-08-01T00:48:30;15.52;95.95
78490;DHT22;67776;52.012;4.736;2023-08-01T00:51:05;15.53;95.03
78490;DHT22;67776;52.012;4.736;2023-08-01T00:53:31;15.52;95.37
78490;DHT22;67776;52.012;4.736;2023-08-01T00:55:58;15.43;96.42
78490;DHT22;67776;52.012;4.736;2023-08-01T00:58:23;15.46;95.10
78490;DHT22;67776;52.012;4.736;2023-08-01T01:00:49;15.52;94.62
78490;DHT22;67776;52.012;4.736;2023-08-01T01:03:15;15.52;94.91
78490;DHT22;67776;52.012;4.736;2023-08-01T01:06:02;15.49;94.72
78490;DHT22;67776;52.012;4.736;2023-08-01T01:08:30;15.49;94.32
78490;DHT22;67776;52.012;4.736;2023-08-01T01:10:56;15.52;94.66
78490;DHT22;67776;52.012;4.736;2023-08-01T01:13:21;15.52;94.53
78490;DHT22;67776;52.012;4.736;2023-08-01T01:15:46;15.55;94.85
78490;DHT22;67776;52.012;4.736;2023-08-01T01:18:12;15.53;94.35
78490;DHT22;67776;52.012;4.736;2023-08-01T01:20:38;15.52;95.93
78490;DHT22;67776;52.012;4.736;2023-08-01T01:23:05;15.46;96.46
78490;DHT22;67776;52.012;4.736;2023-08-01T01:25:32;15.43;97.46
78490;DHT22;67776;52.012;4.736;2023-08-01T01:27:59;15.42;96.72
78490;DHT22;67776;52.012;4.736;2023-08-01T01:30:26;15.45;97.26
78490;DHT22;67776;52.012;4.736;2023-08-01T01:32:52;15.46;96.57
78490;DHT22;67776;52.012;4.736;2023-08-01T01:35:18;15.51;96.51
78490;DHT22;67776;52.012;4.736;2023-08-01T01:37:43;15.58;97.19
78490;DHT22;67776;52.012;4.736;2023-08-01T01:40:09;15.59;96.23
78490;DHT22;67776;52.012;4.736;2023-08-01T01:42:34;15.63;96.76
78490;DHT22;67776;52.012;4.736;2023-08-01T01:44:59;15.74;95.66
78490;DHT22;67776;52.012;4.736;2023-08-01T01:47:25;15.76;96.12
78490;DHT22;67776;52.012;4.736;2023-08-01T01:49:50;15.76;95.26
78490;DHT22;67776;52.012;4.736;2023-08-01T01:52:15;15.73;96.43
78490;DHT22;67776;52.012;4.736;2023-08-01T01:54:41;15.74;96.39
78490;DHT22;67776;52.012;4.736;2023-08-01T01:57:06;15.80;94.96
78490;DHT22;67776;52.012;4.736;2023-08-01T01:59:31;15.79;95.96
78490;DHT22;67776;52.012;4.736;2023-08-01T02:01:57;15.77;95.66
78490;DHT22;67776;52.012;4.736;2023-08-01T02:04:22;15.80;95.52
78490;DHT22;67776;52.012;4.736;2023-08-01T02:06:47;15.87;94.64
78490;DHT22;67776;52.012;4.736;2023-08-01T02:09:13;15.86;96.32
78490;DHT22;67776;52.012;4.736;2023-08-01T02:11:38;15.85;95.73
78490;DHT22;67776;52.012;4.736;2023-08-01T02:14:03;15.89;94.59
78490;DHT22;67776;52.012;4.736;2023-08-01T02:16:29;15.91;95.12
78490;DHT22;67776;52.012;4.736;2023-08-01T02:18:54;15.97;94.00
78490;DHT22;67776;52.012;4.736;2023-08-01T02:21:19;15.93;95.12
78490;DHT22;67776;52.012;4.736;2023-08-01T02:23:45;15.98;95.33
78490;DHT22;67776;52.012;4.736;2023-08-01T02:26:10;15.94;94.16
78490;DHT22;67776;52.012;4.736;2023-08-01T02:28:35;16.00;94.15
78490;DHT22;67776;52.012;4.736;2023-08-01T02:31:01;15.97;95.06
78490;DHT22;67776;52.012;4.736;2023-08-01T02:33:26;16.00;94.78
78490;DHT22;67776;52.012;4.736;2023-08-01T02:35:51;15.97;95.48
78490;DHT22;67776;52.012;4.736;2023-08-01T02:38:17;15.94;95.38
78490;DHT22;67776;52.012;4.736;2023-08-01T02:40:42;16.01;95.42
78490;DHT22;67776;52.012;4.736;2023-08-01T02:43:08;16.06;94.09
78490;DHT22;67776;52.012;4.736;2023-08-01T02:45:33;16.03;95.08
78490;DHT22;67776;52.012;4.736;2023-08-01T02:47:58;16.01;95.71
78490;DHT22;67776;52.012;4.736;2023-08-01T02:50:24;15.98;94.89
78490;DHT22;67776;52.012;4.736;2023-08-01T02:52:49;16.07;94.57
78490;DHT22;67776;52.012;4.736;2023-08-01T02:55:14;16.13;94.61
78490;DHT22;67776;52.012;4.736;2023-08-01T02:57:40;16.04;94.44
78490;DHT22;67776;52.012;4.736;2023-08-01T03:00:05;16.06;94.17
78490;DHT22;67776;52.012;4.736;2023-08-01T03:02:31;16.04;95.78
78490;DHT22;67776;52.012;4.736;2023-08-01T03:04:57;16.10;94.30
78490;DHT22;67776;52.012;4.736;2023-08-01T03:07:22;16.06;94.49
78490;DHT22;67776;52.012;4.736;2023-08-01T03:09:48;16.07;94.42
78490;DHT22;67776;52.012;4.736;2023-08-01T03:12:13;16.10;94.83
78490;DHT22;67776;52.012;4.736;2023-08-01T03:14:38;16.07;94.33
78490;DHT22;67776;52.012;4.736;2023-08-01T03:17:06;16.11;94.60
78490;DHT22;67776;52.012;4.736;2023-08-01T03:19:33;16.14;94.33
78490;DHT22;67776;52.012;4.736;2023-08-01T03:21:59;16.11;93.95
78490;DHT22;67776;52.012;4.736;2023-08-01T03:24:25;16.14;93.50
78490;DHT22;67776;52.012;4.736;2023-08-01T03:26:50;16.15;93.28
78490;DHT22;67776;52.012;4.736;2023-08-01T03:29:15;16.11;94.36
78490;DHT22;67776;52.012;4.736;2023-08-01T03:31:41;16.14;93.71
78490;DHT22;67776;52.012;4.736;2023-08-01T03:34:06;16.15;93.63
78490;DHT22;67776;52.012;4.736;2023-08-01T03:36:34;16.17;93.67
78490;DHT22;67776;52.012;4.736;2023-08-01T03:38:59;16.15;93.46
78490;DHT22;67776;52.012;4.736;2023-08-01T03:41:25;16.14;93.69
78490;DHT22;67776;52.012;4.736;2023-08-01T03:43:50;16.18;92.55
78490;DHT22;67776;52.012;4.736;2023-08-01T03:46:15;16.14;93.26
78490;DHT22;67776;52.012;4.736;2023-08-01T03:48:41;16.15;92.78
78490;DHT22;67776;52.012;4.736;2023-08-01T03:51:06;16.14;93.21
78490;DHT22;67776;52.012;4.736;2023-08-01T03:53:32;16.14;92.98
78490;DHT22;67776;52.012;4.736;2023-08-01T03:55:57;16.04;93.82
78490;DHT22;67776;52.012;4.736;2023-08-01T03:58:23;16.03;93.86
78490;DHT22;67776;52.012;4.736;2023-08-01T04:00:48;16.00;94.08
78490;DHT22;67776;52.012;4.736;2023-08-01T04:03:13;16.04;94.06
78490;DHT22;67776;52.012;4.736;2023-08-01T04:05:39;16.00;93.85
78490;DHT22;67776;52.012;4.736;2023-08-01T04:08:04;16.03;94.27
78490;DHT22;67776;52.012;4.736;2023-08-01T04:10:29;15.97;95.07
78490;DHT22;67776;52.012;4.736;2023-08-01T04:12:55;15.96;95.29
78490;DHT22;67776;52.012;4.736;2023-08-01T04:15:20;15.96;94.65
78490;DHT22;67776;52.012;4.736;2023-08-01T04:17:45;16.01;94.07
78490;DHT22;67776;52.012;4.736;2023-08-01T04:20:11;16.01;94.25
78490;DHT22;67776;52.012;4.736;2023-08-01T04:22:36;15.98;94.32
78490;DHT22;67776;52.012;4.736;2023-08-01T04:25:02;15.93;94.51
78490;DHT22;67776;52.012;4.736;2023-08-01T04:27:27;15.87;95.56
78490;DHT22;67776;52.012;4.736;2023-08-01T04:29:53;15.87;95.48
78490;DHT22;67776;52.012;4.736;2023-08-01T04:32:19;15.82;94.76
78490;DHT22;67776;52.012;4.736;2023-08-01T04:34:44;15.85;95.58
78490;DHT22;67776;52.012;4.736;2023-08-01T04:37:09;15.82;95.20
78490;DHT22;67776;52.012;4.736;2023-08-01T04:39:38;15.79;95.67
78490;DHT22;67776;52.012;4.736;2023-08-01T04:42:04;15.77;95.30
78490;DHT22;67776;52.012;4.736;2023-08-01T04:44:29;15.80;95.47
78490;DHT22;67776;52.012;4.736;2023-08-01T04:46:55;15.86;94.00
78490;DHT22;67776;52.012;4.736;2023-08-01T04:49:20;15.89;93.86
78490;DHT22;67776;52.012;4.736;2023-08-01T04:51:48;15.86;93.73
78490;DHT22;67776;52.012;4.736;2023-08-01T04:54:14;15.89;93.22
78490;DHT22;67776;52.012;4.736;2023-08-01T04:56:39;15.89;93.34
78490;DHT22;67776;52.012;4.736;2023-08-01T04:59:04;15.87;93.17
78490;DHT22;67776;52.012;4.736;2023-08-01T05:01:30;15.89;93.14
78490;DHT22;67776;52.012;4.736;2023-08-01T05:03:56;15.89;93.27
78490;DHT22;67776;52.012;4.736;2023-08-01T05:06:21;15.87;93.32
78490;DHT22;67776;52.012;4.736;2023-08-01T05:08:46;15.83;93.74
78490;DHT22;67776;52.012;4.736;2023-08-01T05:11:12;15.91;92.50
78490;DHT22;67776;52.012;4.736;2023-08-01T05:13:37;15.93;92.35
78490;DHT22;67776;52.012;4.736;2023-08-01T05:16:02;15.97;92.88
78490;DHT22;67776;52.012;4.736;2023-08-01T05:18:28;15.97;93.00
78490;DHT22;67776;52.012;4.736;2023-08-01T05:20:53;16.01;92.50
78490;DHT22;67776;52.012;4.736;2023-08-01T05:23:19;15.96;93.24
78490;DHT22;67776;52.012;4.736;2023-08-01T05:25:44;15.97;92.61
78490;DHT22;67776;52.012;4.736;2023-08-01T05:28:10;15.97;93.41
78490;DHT22;67776;52.012;4.736;2023-08-01T05:30:35;15.97;92.66
78490;DHT22;67776;52.012;4.736;2023-08-01T05:33:00;15.91;92.55
78490;DHT22;67776;52.012;4.736;2023-08-01T05:35:26;15.89;92.67
78490;DHT22;67776;52.012;4.736;2023-08-01T05:37:51;15.93;92.40
78490;DHT22;67776;52.012;4.736;2023-08-01T05:40:16;15.97;91.94
78490;DHT22;67776;52.012;4.736;2023-08-01T05:42:42;16.01;91.67
78490;DHT22;67776;52.012;4.736;2023-08-01T05:45:08;16.00;92.15
78490;DHT22;67776;52.012;4.736;2023-08-01T05:47:33;15.90;92.58
78490;DHT22;67776;52.012;4.736;2023-08-01T05:49:59;15.94;93.02
78490;DHT22;67776;52.012;4.736;2023-08-01T05:52:25;16.03;91.84
78490;DHT22;67776;52.012;4.736;2023-08-01T05:54:50;16.10;91.57
78490;DHT22;67776;52.012;4.736;2023-08-01T05:57:15;16.13;91.41
78490;DHT22;67776;52.012;4.736;2023-08-01T05:59:41;16.08;92.16
78490;DHT22;67776;52.012;4.736;2023-08-01T06:02:06;16.17;91.41
78490;DHT22;67776;52.012;4.736;2023-08-01T06:04:32;16.14;92.92
78490;DHT22;67776;52.012;4.736;2023-08-01T06:06:57;16.15;91.21
78490;DHT22;67776;52.012;4.736;2023-08-01T06:09:24;16.24;90.26
78490;DHT22;67776;52.012;4.736;2023-08-01T06:11:49;16.26;90.69
78490;DHT22;67776;52.012;4.736;2023-08-01T06:14:14;16.38;90.45
78490;DHT22;67776;52.012;4.736;2023-08-01T06:16:40;16.35;90.93
78490;DHT22;67776;52.012;4.736;2023-08-01T06:19:06;16.44;89.84
78490;DHT22;67776;52.012;4.736;2023-08-01T06:21:31;16.52;90.80
78490;DHT22;67776;52.012;4.736;2023-08-01T06:23:56;16.58;89.72
78490;DHT22;67776;52.012;4.736;2023-08-01T06:26:22;16.70;89.48
78490;DHT22;67776;52.012;4.736;2023-08-01T06:28:47;16.90;88.72
78490;DHT22;67776;52.012;4.736;2023-08-01T06:31:12;17.14;88.61
78490;DHT22;67776;52.012;4.736;2023-08-01T06:33:37;16.99;89.97
78490;DHT22;67776;52.012;4.736;2023-08-01T06:36:05;16.91;88.87
78490;DHT22;67776;52.012;4.736;2023-08-01T06:38:30;16.93;90.22
78490;DHT22;67776;52.012;4.736;2023-08-01T06:40:55;16.91;89.20
78490;DHT22;67776;52.012;4.736;2023-08-01T06:43:21;16.97;88.21
78490;DHT22;67776;52.012;4.736;2023-08-01T06:45:46;17.03;87.76
78490;DHT22;67776;52.012;4.736;2023-08-01T06:48:11;17.03;88.08
78490;DHT22;67776;52.012;4.736;2023-08-01T06:50:37;16.84;90.98
78490;DHT22;67776;52.012;4.736;2023-08-01T06:53:02;16.89;88.08
78490;DHT22;67776;52.012;4.736;2023-08-01T06:55:27;16.86;88.82
78490;DHT22;67776;52.012;4.736;2023-08-01T06:57:53;16.87;89.54
78490;DHT22;67776;52.012;4.736;2023-08-01T07:00:18;16.89;89.52
78490;DHT22;67776;52.012;4.736;2023-08-01T07:02:44;16.83;88.78
78490;DHT22;67776;52.012;4.736;2023-08-01T07:05:09;16.83;89.52
78490;DHT22;67776;52.012;4.736;2023-08-01T07:07:34;16.87;89.36
78490;DHT22;67776;52.012;4.736;2023-08-01T07:10:00;16.97;91.05
78490;DHT22;67776;52.012;4.736;2023-08-01T07:12:25;17.06;88.94
78490;DHT22;67776;52.012;4.736;2023-08-01T07:14:51;17.18;88.03
78490;DHT22;67776;52.012;4.736;2023-08-01T07:17:16;17.24;87.76
78490;DHT22;67776;52.012;4.736;2023-08-01T07:19:41;17.35;87.07
78490;DHT22;67776;52.012;4.736;2023-08-01T07:22:07;17.45;87.16
78490;DHT22;67776;52.012;4.736;2023-08-01T07:24:32;17.46;85.98
78490;DHT22;67776;52.012;4.736;2023-08-01T07:26:58;17.35;87.51
78490;DHT22;67776;52.012;4.736;2023-08-01T07:29:23;17.32;84.84
78490;DHT22;67776;52.012;4.736;2023-08-01T07:31:48;17.32;84.84
78490;DHT22;67776;52.012;4.736;2023-08-01T07:34:14;17.43;86.00
78490;DHT22;67776;52.012;4.736;2023-08-01T07:36:39;17.46;84.48
78490;DHT22;67776;52.012;4.736;2023-08-01T07:39:04;17.61;84.88
78490;DHT22;67776;52.012;4.736;2023-08-01T07:41:30;17.66;84.81
78490;DHT22;67776;52.012;4.736;2023-08-01T07:43:55;17.55;82.91
78490;DHT22;67776;52.012;4.736;2023-08-01T07:46:20;17.52;83.14
78490;DHT22;67776;52.012;4.736;2023-08-01T07:48:46;17.65;83.18
78490;DHT22;67776;52.012;4.736;2023-08-01T07:51:11;17.72;84.07
78490;DHT22;67776;52.012;4.736;2023-08-01T07:53:37;17.89;83.08
78490;DHT22;67776;52.012;4.736;2023-08-01T07:56:02;18.01;81.07
78490;DHT22;67776;52.012;4.736;2023-08-01T07:58:29;18.15;82.04
78490;DHT22;67776;52.012;4.736;2023-08-01T08:00:54;17.98;81.43
78490;DHT22;67776;52.012;4.736;2023-08-01T08:03:19;18.00;81.99
78490;DHT22;67776;52.012;4.736;2023-08-01T08:05:47;17.93;83.71
78490;DHT22;67776;52.012;4.736;2023-08-01T08:08:13;17.82;82.43
78490;DHT22;67776;52.012;4.736;2023-08-01T08:10:38;17.93;81.84
78490;DHT22;67776;52.012;4.736;2023-08-01T08:13:04;17.90;82.19
78490;DHT22;67776;52.012;4.736;2023-08-01T08:15:29;17.79;80.78
78490;DHT22;67776;52.012;4.736;2023-08-01T08:17:59;17.87;82.05
78490;DHT22;67776;52.012;4.736;2023-08-01T08:20:24;17.86;80.98
78490;DHT22;67776;52.012;4.736;2023-08-01T08:22:49;17.76;84.39
78490;DHT22;67776;52.012;4.736;2023-08-01T08:25:15;17.91;83.12
78490;DHT22;67776;52.012;4.736;2023-08-01T08:27:40;18.01;81.85
78490;DHT22;67776;52.012;4.736;2023-08-01T08:30:06;18.27;82.05
78490;DHT22;67776;52.012;4.736;2023-08-01T08:32:31;18.31;80.56
78490;DHT22;67776;52.012;4.736;2023-08-01T08:34:57;18.37;79.61
78490;DHT22;67776;52.012;4.736;2023-08-01T08:37:22;18.42;78.83
78490;DHT22;67776;52.012;4.736;2023-08-01T08:39:47;18.45;81.49
78490;DHT22;67776;52.012;4.736;2023-08-01T08:42:13;18.21;79.80
78490;DHT22;67776;52.012;4.736;2023-08-01T08:44:43;18.15;80.56
78490;DHT22;67776;52.012;4.736;2023-08-01T08:47:10;18.17;80.96
78490;DHT22;67776;52.012;4.736;2023-08-01T08:49:37;18.17;80.62
78490;DHT22;67776;52.012;4.736;2023-08-01T08:52:02;18.08;80.25
78490;DHT22;67776;52.012;4.736;2023-08-01T08:54:30;18.04;81.36
78490;DHT22;67776;52.012;4.736;2023-08-01T08:56:55;18.08;80.41
78490;DHT22;67776;52.012;4.736;2023-08-01T08:59:21;18.21;80.06
78490;DHT22;67776;52.012;4.736;2023-08-01T09:01:46;18.41;79.67
78490;DHT22;67776;52.012;4.736;2023-08-01T09:04:12;18.40;79.30
78490;DHT22;67776;52.012;4.736;2023-08-01T09:06:45;18.99;78.11
78490;DHT22;67776;52.012;4.736;2023-08-01T09:09:12;19.13;76.31
78490;DHT22;67776;52.012;4.736;2023-08-01T09:11:42;19.30;78.88
78490;DHT22;67776;52.012;4.736;2023-08-01T09:14:09;19.92;74.16
78490;DHT22;67776;52.012;4.736;2023-08-01T09:16:34;20.03;75.27
78490;DHT22;67776;52.012;4.736;2023-08-01T09:19:00;20.21;73.22
78490;DHT22;67776;52.012;4.736;2023-08-01T09:21:26;19.51;74.72
78490;DHT22;67776;52.012;4.736;2023-08-01T09:23:52;19.38;77.18
78490;DHT22;67776;52.012;4.736;2023-08-01T09:26:19;19.58;75.66
78490;DHT22;67776;52.012;4.736;2023-08-01T09:28:57;19.39;76.35
78490;DHT22;67776;52.012;4.736;2023-08-01T09:31:28;20.03;73.16
78490;DHT22;67776;52.012;4.736;2023-08-01T09:33:53;19.92;73.06
78490;DHT22;67776;52.012;4.736;2023-08-01T09:36:22;19.97;73.24
78490;DHT22;67776;52.012;4.736;2023-08-01T09:38:49;20.68;73.92
78490;DHT22;67776;52.012;4.736;2023-08-01T09:41:18;21.26;70.78
78490;DHT22;67776;52.012;4.736;2023-08-01T09:43:45;21.47;69.58
78490;DHT22;67776;52.012;4.736;2023-08-01T09:46:11;21.30;68.07
78490;DHT22;67776;52.012;4.736;2023-08-01T09:48:37;21.19;70.70
78490;DHT22;67776;52.012;4.736;2023-08-01T09:53:31;21.69;69.00
78490;DHT22;67776;52.012;4.736;2023-08-01T09:56:00;21.51;67.97
78490;DHT22;67776;52.012;4.736;2023-08-01T09:58:32;21.17;70.74
78490;DHT22;67776;52.012;4.736;2023-08-01T10:01:00;21.27;68.88
78490;DHT22;67776;52.012;4.736;2023-08-01T10:03:27;20.64;69.55
78490;DHT22;67776;52.012;4.736;2023-08-01T10:05:55;20.28;74.04
78490;DHT22;67776;52.012;4.736;2023-08-01T10:08:22;20.25;69.99
78490;DHT22;67776;52.012;4.736;2023-08-01T10:10:48;20.40;73.05
78490;DHT22;67776;52.012;4.736;2023-08-01T10:13:14;20.83;72.35
78490;DHT22;67776;52.012;4.736;2023-08-01T10:15:40;21.44;69.44
78490;DHT22;67776;52.012;4.736;2023-08-01T10:18:06;20.97;68.81
78490;DHT22;67776;52.012;4.736;2023-08-01T10:20:32;20.52;69.90
78490;DHT22;67776;52.012;4.736;2023-08-01T10:22:59;20.51;71.91
78490;DHT22;67776;52.012;4.736;2023-08-01T10:25:26;21.03;74.24
78490;DHT22;67776;52.012;4.736;2023-08-01T10:28:00;20.71;69.63
78490;DHT22;67776;52.012;4.736;2023-08-01T10:30:29;20.58;72.18
78490;DHT22;67776;52.012;4.736;2023-08-01T10:32:56;19.80;75.88
78490;DHT22;67776;52.012;4.736;2023-08-01T10:35:38;19.96;71.33
78490;DHT22;67776;52.012;4.736;2023-08-01T10:38:11;20.80;69.68
78490;DHT22;67776;52.012;4.736;2023-08-01T10:43:03;20.20;69.79
78490;DHT22;67776;52.012;4.736;2023-08-01T10:45:29;20.17;69.99
78490;DHT22;67776;52.012;4.736;2023-08-01T10:48:09;20.18;69.98
78490;DHT22;67776;52.012;4.736;2023-08-01T10:50:35;19.39;72.45
78490;DHT22;67776;52.012;4.736;2023-08-01T10:53:10;19.20;76.64
78490;DHT22;67776;52.012;4.736;2023-08-01T10:55:46;19.57;76.66
78490;DHT22;67776;52.012;4.736;2023-08-01T10:58:12;20.52;74.00
78490;DHT22;67776;52.012;4.736;2023-08-01T11:00:38;20.40;73.21
78490;DHT22;67776;52.012;4.736;2023-08-01T11:03:04;20.45;71.20
78490;DHT22;67776;52.012;4.736;2023-08-01T11:05:29;20.00;73.23
78490;DHT22;67776;52.012;4.736;2023-08-01T11:07:56;19.86;74.78
78490;DHT22;67776;52.012;4.736;2023-08-01T11:10:24;19.86;73.95
78490;DHT22;67776;52.012;4.736;2023-08-01T11:12:50;19.73;73.05
78490;DHT22;67776;52.012;4.736;2023-08-01T11:15:15;20.20;69.08
78490;DHT22;67776;52.012;4.736;2023-08-01T11:17:48;20.41;71.98
78490;DHT22;67776;52.012;4.736;2023-08-01T11:20:15;21.06;68.25
78490;DHT22;67776;52.012;4.736;2023-08-01T11:22:54;20.10;71.82
78490;DHT22;67776;52.012;4.736;2023-08-01T11:25:37;19.69;74.32
78490;DHT22;67776;52.012;4.736;2023-08-01T11:28:10;19.03;78.28
78490;DHT22;67776;52.012;4.736;2023-08-01T11:30:36;19.04;76.22
78490;DHT22;67776;52.012;4.736;2023-08-01T11:33:02;18.80;77.78
78490;DHT22;67776;52.012;4.736;2023-08-01T11:35:38;18.62;76.67
78490;DHT22;67776;52.012;4.736;2023-08-01T11:38:03;19.62;74.69
78490;DHT22;67776;52.012;4.736;2023-08-01T11:40:31;20.85;70.11
78490;DHT22;67776;52.012;4.736;2023-08-01T11:42:57;21.72;69.95
78490;DHT22;67776;52.012;4.736;2023-08-01T11:45:23;22.12;68.01
78490;DHT22;67776;52.012;4.736;2023-08-01T11:47:49;22.00;65.50
78490;DHT22;67776;52.012;4.736;2023-08-01T11:50:24;21.81;64.88
78490;DHT22;67776;52.012;4.736;2023-08-01T11:52:50;22.07;64.81
78490;DHT22;67776;52.012;4.736;2023-08-01T11:55:25;21.69;65.82
78490;DHT22;67776;52.012;4.736;2023-08-01T11:57:54;21.24;66.63
78490;DHT22;67776;52.012;4.736;2023-08-01T12:00:23;21.93;65.34
78490;DHT22;67776;52.012;4.736;2023-08-01T12:02:48;21.90;64.94
78490;DHT22;67776;52.012;4.736;2023-08-01T12:05:21;22.48;62.22
78490;DHT22;67776;52.012;4.736;2023-08-01T12:07:47;23.54;61.27
78490;DHT22;67776;52.012;4.736;2023-08-01T12:10:12;22.71;61.26
78490;DHT22;67776;52.012;4.736;2023-08-01T12:12:45;22.91;62.20
78490;DHT22;67776;52.012;4.736;2023-08-01T12:15:11;22.98;60.49
78490;DHT22;67776;52.012;4.736;2023-08-01T12:17:37;22.13;64.38
78490;DHT22;67776;52.012;4.736;2023-08-01T12:20:02;21.81;64.21
78490;DHT22;67776;52.012;4.736;2023-08-01T12:22:28;21.92;64.89
78490;DHT22;67776;52.012;4.736;2023-08-01T12:24:53;20.83;70.27
78490;DHT22;67776;52.012;4.736;2023-08-01T12:27:18;19.94;72.42
78490;DHT22;67776;52.012;4.736;2023-08-01T12:29:44;20.16;71.40
78490;DHT22;67776;52.012;4.736;2023-08-01T12:32:09;21.85;65.80
78490;DHT22;67776;52.012;4.736;2023-08-01T12:34:34;22.87;61.76
78490;DHT22;67776;52.012;4.736;2023-08-01T12:37:00;21.26;65.80
78490;DHT22;67776;52.012;4.736;2023-08-01T12:39:25;20.88;66.47
78490;DHT22;67776;52.012;4.736;2023-08-01T12:41:52;20.58;66.79
78490;DHT22;67776;52.012;4.736;2023-08-01T12:44:18;21.02;68.53
78490;DHT22;67776;52.012;4.736;2023-08-01T12:46:43;22.30;63.88
78490;DHT22;67776;52.012;4.736;2023-08-01T12:49:09;23.68;59.95
78490;DHT22;67776;52.012;4.736;2023-08-01T12:51:34;24.60;58.15
78490;DHT22;67776;52.012;4.736;2023-08-01T12:53:59;24.26;61.56
78490;DHT22;67776;52.012;4.736;2023-08-01T12:56:25;25.02;57.27
78490;DHT22;67776;52.012;4.736;2023-08-01T12:58:50;25.56;54.58
78490;DHT22;67776;52.012;4.736;2023-08-01T13:01:15;23.96;59.27
78490;DHT22;67776;52.012;4.736;2023-08-01T13:03:41;23.55;60.43
78490;DHT22;67776;52.012;4.736;2023-08-01T13:06:06;23.88;57.92
78490;DHT22;67776;52.012;4.736;2023-08-01T13:08:35;23.19;59.19
78490;DHT22;67776;52.012;4.736;2023-08-01T13:11:00;23.39;60.41
78490;DHT22;67776;52.012;4.736;2023-08-01T13:13:25;21.82;63.16
78490;DHT22;67776;52.012;4.736;2023-08-01T13:15:51;20.61;68.48
78490;DHT22;67776;52.012;4.736;2023-08-01T13:18:16;20.49;68.74
78490;DHT22;67776;52.012;4.736;2023-08-01T13:20:43;20.55;70.03
78490;DHT22;67776;52.012;4.736;2023-08-01T13:23:08;20.80;67.50
78490;DHT22;67776;52.012;4.736;2023-08-01T13:25:34;21.78;65.11
78490;DHT22;67776;52.012;4.736;2023-08-01T13:27:59;21.77;64.33
78490;DHT22;67776;52.012;4.736;2023-08-01T13:30:25;21.02;66.34
78490;DHT22;67776;52.012;4.736;2023-08-01T13:32:50;20.69;66.56
78490;DHT22;67776;52.012;4.736;2023-08-01T13:35:15;20.35;66.97
78490;DHT22;67776;52.012;4.736;2023-08-01T13:37:41;20.40;68.24
78490;DHT22;67776;52.012;4.736;2023-08-01T13:40:07;20.25;68.84
78490;DHT22;67776;52.012;4.736;2023-08-01T13:42:33;20.17;71.06
78490;DHT22;67776;52.012;4.736;2023-08-01T13:44:59;20.49;69.91
78490;DHT22;67776;52.012;4.736;2023-08-01T13:47:24;20.73;68.51
78490;DHT22;67776;52.012;4.736;2023-08-01T13:49:50;20.64;68.84
78490;DHT22;67776;52.012;4.736;2023-08-01T13:52:15;20.93;67.06
78490;DHT22;67776;52.012;4.736;2023-08-01T13:54:40;21.26;67.28
78490;DHT22;67776;52.012;4.736;2023-08-01T13:57:06;21.66;65.95
78490;DHT22;67776;52.012;4.736;2023-08-01T13:59:31;21.72;67.99
78490;DHT22;67776;52.012;4.736;2023-08-01T14:01:57;22.05;64.83
78490;DHT22;67776;52.012;4.736;2023-08-01T14:04:22;22.21;63.80
78490;DHT22;67776;52.012;4.736;2023-08-01T14:06:47;21.19;68.87
78490;DHT22;67776;52.012;4.736;2023-08-01T14:09:13;20.83;68.26
78490;DHT22;67776;52.012;4.736;2023-08-01T14:11:39;21.41;68.11
78490;DHT22;67776;52.012;4.736;2023-08-01T14:14:04;21.33;65.77
78490;DHT22;67776;52.012;4.736;2023-08-01T14:16:29;21.40;66.95
78490;DHT22;67776;52.012;4.736;2023-08-01T14:18:56;21.37;66.77
78490;DHT22;67776;52.012;4.736;2023-08-01T14:21:21;21.28;67.01
78490;DHT22;67776;52.012;4.736;2023-08-01T14:23:47;21.54;68.78
78490;DHT22;67776;52.012;4.736;2023-08-01T14:26:13;22.21;64.93
78490;DHT22;67776;52.012;4.736;2023-08-01T14:28:38;21.77;64.03
78490;DHT22;67776;52.012;4.736;2023-08-01T14:31:03;21.04;67.58
78490;DHT22;67776;52.012;4.736;2023-08-01T14:33:29;20.64;68.23
78490;DHT22;67776;52.012;4.736;2023-08-01T14:35:54;21.22;66.23
78490;DHT22;67776;52.012;4.736;2023-08-01T14:38:20;21.63;64.68
78490;DHT22;67776;52.012;4.736;2023-08-01T14:40:45;21.40;65.61
78490;DHT22;67776;52.012;4.736;2023-08-01T14:43:10;20.62;67.67
78490;DHT22;67776;52.012;4.736;2023-08-01T14:45:40;20.30;67.05
78490;DHT22;67776;52.012;4.736;2023-08-01T14:48:06;20.18;69.58
78490;DHT22;67776;52.012;4.736;2023-08-01T14:50:32;20.01;69.04
78490;DHT22;67776;52.012;4.736;2023-08-01T14:52:57;19.75;69.86
78490;DHT22;67776;52.012;4.736;2023-08-01T14:55:23;19.08;74.71
78490;DHT22;67776;52.012;4.736;2023-08-01T14:57:48;18.47;78.27
78490;DHT22;67776;52.012;4.736;2023-08-01T15:00:15;17.80;82.31
78490;DHT22;67776;52.012;4.736;2023-08-01T15:02:40;17.27;83.89
78490;DHT22;67776;52.012;4.736;2023-08-01T15:05:06;17.34;82.74
78490;DHT22;67776;52.012;4.736;2023-08-01T15:07:31;17.10;84.47
78490;DHT22;67776;52.012;4.736;2023-08-01T15:09:56;17.28;82.50
78490;DHT22;67776;52.012;4.736;2023-08-01T15:12:22;17.30;84.58
78490;DHT22;67776;52.012;4.736;2023-08-01T15:14:55;17.42;82.20
78490;DHT22;67776;52.012;4.736;2023-08-01T15:17:21;17.45;81.70
78490;DHT22;67776;52.012;4.736;2023-08-01T15:19:46;17.56;81.95
78490;DHT22;67776;52.012;4.736;2023-08-01T15:22:13;17.68;81.22
78490;DHT22;67776;52.012;4.736;2023-08-01T15:24:39;17.91;82.53
78490;DHT22;67776;52.012;4.736;2023-08-01T15:27:04;18.38;80.69
78490;DHT22;67776;52.012;4.736;2023-08-01T15:29:30;18.70;79.78